Time;durP1;ratioP1;P1;durP2;ratioP2;P2;SDS_P1;SDS_P2;PMS_P1;PMS_P2;Temp;Humidity;BMP_temperature;BMP_pressure;BME280_temperature;BME280_humidity;BME280_pressure;Samples;Min_cycle;Max_cycle;Signal;HPM_P1;HPM_P2
2024/01/31 00:01:42;;;;;;;;;;;7.70;99.90;;;;;;5080104;28;19964;-82
2024/01/31 00:04:08;;;;;;;;;;;7.70;99.90;;;;;;5078655;28;19940;-80
2024/01/31 00:06:33;;;;;;;;;;;7.70;99.90;;;;;;5080605;28;19971;-80
2024/01/31 00:09:00;;;;;;;;;;;7.70;99.90;;;;;;5080573;28;19909;-81
2024/01/31 00:11:28;;;;;;;;;;;7.70;99.90;;;;;;5076960;28;19912;-79
2024/01/31 00:13:54;;;;;;;;;;;7.70;99.90;;;;;;5076893;28;19909;-81
2024/01/31 00:16:19;;;;;;;;;;;7.70;99.90;;;;;;5077971;28;19916;-81
2024/01/31 00:18:45;;;;;;;;;;;7.70;99.90;;;;;;5078013;28;19919;-82
2024/01/31 00:21:10;;;;;;;;;;;7.70;99.90;;;;;;5078128;28;19927;-82
2024/01/31 00:23:36;;;;;;;;;;;7.70;99.90;;;;;;5076714;28;19909;-82
2024/01/31 00:26:02;;;;;;;;;;;7.70;99.90;;;;;;5078176;28;19980;-81
2024/01/31 00:28:28;;;;;;;;;;;7.70;99.90;;;;;;5078229;28;19912;-81
2024/01/31 00:30:53;;;;;;;;;;;7.70;99.90;;;;;;5076381;28;20000;-83
2024/01/31 00:33:19;;;;;;;;;;;7.70;99.90;;;;;;5077874;28;19919;-82
2024/01/31 00:35:44;;;;;;;;;;;7.60;99.90;;;;;;5077901;28;19971;-82
2024/01/31 00:38:10;;;;;;;;;;;7.60;99.90;;;;;;5076434;28;19919;-82
2024/01/31 00:40:35;;;;;;;;;;;7.50;99.90;;;;;;5077631;28;19951;-82
2024/01/31 00:43:01;;;;;;;;;;;7.50;99.90;;;;;;5076722;28;20023;-82
2024/01/31 00:45:27;;;;;;;;;;;7.50;99.90;;;;;;5076161;28;19935;-83
2024/01/31 00:47:53;;;;;;;;;;;7.40;99.90;;;;;;5076207;28;19912;-82
2024/01/31 00:50:18;;;;;;;;;;;7.40;99.90;;;;;;5076275;28;20350;-83
2024/01/31 00:52:44;;;;;;;;;;;7.30;99.90;;;;;;5077406;28;19916;-82
2024/01/31 00:55:10;;;;;;;;;;;7.30;99.90;;;;;;5076235;28;19909;-82
2024/01/31 00:57:35;;;;;;;;;;;7.30;99.90;;;;;;5076045;28;19916;-83
2024/01/31 01:00:05;;;;;;;;;;;7.30;99.90;;;;;;5077793;28;19966;-82
2024/01/31 01:02:35;;;;;;;;;;;7.30;99.90;;;;;;5077292;28;20376;-82
2024/01/31 01:05:01;;;;;;;;;;;7.30;99.90;;;;;;5076865;28;20415;-82
2024/01/31 01:07:26;;;;;;;;;;;7.20;99.90;;;;;;5077249;28;19912;-82
2024/01/31 01:09:52;;;;;;;;;;;7.20;99.90;;;;;;5075637;28;19913;-81
2024/01/31 01:12:17;;;;;;;;;;;7.10;99.90;;;;;;5077377;28;19908;-82
2024/01/31 01:14:43;;;;;;;;;;;7.00;99.90;;;;;;5075660;28;19912;-82
2024/01/31 01:17:08;;;;;;;;;;;7.00;99.90;;;;;;5075945;28;19919;-82
2024/01/31 01:19:34;;;;;;;;;;;7.00;99.90;;;;;;5075961;28;19952;-82
2024/01/31 01:22:00;;;;;;;;;;;6.90;99.90;;;;;;5076361;28;19944;-82
2024/01/31 01:24:26;;;;;;;;;;;6.90;99.90;;;;;;5079166;28;19953;-81
2024/01/31 01:26:51;;;;;;;;;;;6.90;99.90;;;;;;5078165;28;20007;-82
2024/01/31 01:29:17;;;;;;;;;;;7.00;99.90;;;;;;5080295;28;19920;-82
2024/01/31 01:31:42;;;;;;;;;;;7.00;99.90;;;;;;5079770;28;20431;-82
2024/01/31 01:34:09;;;;;;;;;;;7.00;99.90;;;;;;5077455;28;19912;-82
2024/01/31 01:36:34;;;;;;;;;;;7.00;99.90;;;;;;5076415;28;19940;-82
2024/01/31 01:39:00;;;;;;;;;;;6.90;99.90;;;;;;5076839;28;19916;-82
2024/01/31 01:41:26;;;;;;;;;;;6.90;99.90;;;;;;5078390;28;19912;-83
2024/01/31 01:43:51;;;;;;;;;;;6.90;99.90;;;;;;5073442;28;19913;-83
2024/01/31 01:46:19;;;;;;;;;;;7.00;99.90;;;;;;5106422;28;19935;-83
2024/01/31 01:48:45;;;;;;;;;;;7.00;99.90;;;;;;5078849;28;19909;-82
2024/01/31 01:51:15;;;;;;;;;;;7.10;99.90;;;;;;5076548;28;19934;-82
2024/01/31 01:53:40;;;;;;;;;;;7.10;99.90;;;;;;5076697;28;20300;-83
2024/01/31 01:56:08;;;;;;;;;;;7.20;99.90;;;;;;5076500;28;19908;-82
2024/01/31 01:58:35;;;;;;;;;;;7.30;99.90;;;;;;5076207;28;19920;-81
2024/01/31 02:01:01;;;;;;;;;;;7.40;99.90;;;;;;5075095;28;19920;-81
2024/01/31 02:03:30;;;;;;;;;;;7.50;99.90;;;;;;5076074;28;19964;-81
2024/01/31 02:06:02;;;;;;;;;;;7.50;99.90;;;;;;5076273;28;19909;-82
2024/01/31 02:08:28;;;;;;;;;;;7.60;99.90;;;;;;5076026;28;19909;-82
2024/01/31 02:10:54;;;;;;;;;;;7.60;99.90;;;;;;5076226;28;19946;-82
2024/01/31 02:13:20;;;;;;;;;;;7.60;99.90;;;;;;5076221;28;19952;-83
2024/01/31 02:15:52;;;;;;;;;;;7.70;99.90;;;;;;5073846;28;19971;-83
2024/01/31 02:18:18;;;;;;;;;;;7.70;99.90;;;;;;5076003;28;19912;-83
2024/01/31 02:20:43;;;;;;;;;;;7.80;99.90;;;;;;5076231;28;19924;-82
2024/01/31 02:23:09;;;;;;;;;;;7.80;99.90;;;;;;5074692;28;19912;-83
2024/01/31 02:25:35;;;;;;;;;;;7.80;99.90;;;;;;5108344;28;19919;-82
2024/01/31 02:28:00;;;;;;;;;;;7.80;99.90;;;;;;5074676;28;19955;-83
2024/01/31 02:30:26;;;;;;;;;;;7.80;99.90;;;;;;5075853;28;19999;-83
2024/01/31 02:32:54;;;;;;;;;;;7.80;99.90;;;;;;5075749;28;19999;-83
2024/01/31 02:35:19;;;;;;;;;;;7.70;99.90;;;;;;5075967;28;19966;-82
2024/01/31 02:37:45;;;;;;;;;;;7.70;99.90;;;;;;5074529;28;19912;-83
2024/01/31 02:40:11;;;;;;;;;;;7.70;99.90;;;;;;5075933;28;19912;-83
2024/01/31 02:42:36;;;;;;;;;;;7.60;99.90;;;;;;5075179;28;20388;-83
2024/01/31 02:45:02;;;;;;;;;;;7.60;99.90;;;;;;5074833;28;19909;-83
2024/01/31 02:47:27;;;;;;;;;;;7.60;99.90;;;;;;5075595;28;19912;-83
2024/01/31 02:49:53;;;;;;;;;;;7.60;99.90;;;;;;5075955;28;19909;-83
2024/01/31 02:52:18;;;;;;;;;;;7.60;99.90;;;;;;5076679;28;19908;-83
2024/01/31 02:54:44;;;;;;;;;;;7.60;99.90;;;;;;5077399;28;19908;-83
2024/01/31 02:57:09;;;;;;;;;;;7.60;99.90;;;;;;5077340;28;19939;-82
2024/01/31 02:59:35;;;;;;;;;;;7.60;99.90;;;;;;5077923;28;20059;-81
2024/01/31 03:02:01;;;;;;;;;;;7.50;99.90;;;;;;5079579;28;20490;-82
2024/01/31 03:04:26;;;;;;;;;;;7.50;99.90;;;;;;5076627;28;19912;-81
2024/01/31 03:06:52;;;;;;;;;;;7.40;99.90;;;;;;5075602;28;19916;-81
2024/01/31 03:09:18;;;;;;;;;;;7.40;99.90;;;;;;5074362;28;19915;-82
2024/01/31 03:11:43;;;;;;;;;;;7.40;99.90;;;;;;5074291;28;19913;-82
2024/01/31 03:14:09;;;;;;;;;;;7.40;99.90;;;;;;5074245;28;20327;-81
2024/01/31 03:16:39;;;;;;;;;;;7.30;99.90;;;;;;5075661;28;20314;-81
2024/01/31 03:19:05;;;;;;;;;;;7.30;99.90;;;;;;5107904;28;20006;-81
2024/01/31 03:21:30;;;;;;;;;;;7.20;99.90;;;;;;5075540;28;20007;-82
2024/01/31 03:23:56;;;;;;;;;;;7.10;99.90;;;;;;5075459;28;20306;-81
2024/01/31 03:26:21;;;;;;;;;;;7.00;99.90;;;;;;5075164;28;20380;-83
2024/01/31 03:28:47;;;;;;;;;;;6.90;99.90;;;;;;5079312;28;20402;-82
2024/01/31 03:31:13;;;;;;;;;;;6.80;99.90;;;;;;5077808;28;20399;-82
2024/01/31 03:33:38;;;;;;;;;;;6.70;99.90;;;;;;5077388;28;19908;-83
2024/01/31 03:36:04;;;;;;;;;;;6.70;99.90;;;;;;5073717;28;19908;-83
2024/01/31 03:38:29;;;;;;;;;;;6.80;99.90;;;;;;5079462;28;19914;-83
2024/01/31 03:40:55;;;;;;;;;;;6.70;99.90;;;;;;5079583;28;20542;-82
2024/01/31 03:43:20;;;;;;;;;;;6.70;99.90;;;;;;5079905;28;19943;-82
2024/01/31 03:45:46;;;;;;;;;;;6.70;99.90;;;;;;5078741;28;20006;-82
2024/01/31 03:48:11;;;;;;;;;;;6.60;99.90;;;;;;5079922;28;19915;-83
2024/01/31 03:50:37;;;;;;;;;;;6.60;99.90;;;;;;5080551;28;19920;-82
2024/01/31 03:53:03;;;;;;;;;;;6.50;99.90;;;;;;5077325;28;20384;-82
2024/01/31 03:55:28;;;;;;;;;;;6.50;99.90;;;;;;5078806;28;19967;-82
2024/01/31 03:57:54;;;;;;;;;;;6.50;99.90;;;;;;5111130;28;19916;-82
2024/01/31 04:00:19;;;;;;;;;;;6.50;99.90;;;;;;5077353;28;20461;-83
2024/01/31 04:02:45;;;;;;;;;;;6.50;99.90;;;;;;5078753;28;20345;-83
2024/01/31 04:05:10;;;;;;;;;;;6.40;99.90;;;;;;5076122;28;19916;-82
2024/01/31 04:07:36;;;;;;;;;;;6.40;99.90;;;;;;5078157;28;19915;-82
2024/01/31 04:10:03;;;;;;;;;;;6.30;99.90;;;;;;5078532;28;19965;-82
2024/01/31 04:12:29;;;;;;;;;;;6.30;99.90;;;;;;5077094;28;19908;-82
2024/01/31 04:14:54;;;;;;;;;;;6.30;99.90;;;;;;5077204;28;19916;-81
2024/01/31 04:17:21;;;;;;;;;;;6.30;99.90;;;;;;5078619;28;19909;-82
2024/01/31 04:19:48;;;;;;;;;;;6.30;99.90;;;;;;5077261;28;19912;-81
2024/01/31 04:22:15;;;;;;;;;;;6.20;99.90;;;;;;5078534;28;19913;-81
2024/01/31 04:24:41;;;;;;;;;;;6.20;99.90;;;;;;5080002;28;19916;-81
2024/01/31 04:27:07;;;;;;;;;;;6.20;99.90;;;;;;5082548;28;19908;-82
2024/01/31 04:29:32;;;;;;;;;;;6.20;99.90;;;;;;5082695;28;20689;-82
2024/01/31 04:31:59;;;;;;;;;;;6.20;99.90;;;;;;5080334;28;20604;-82
2024/01/31 04:34:25;;;;;;;;;;;6.10;99.90;;;;;;5081915;28;20388;-82
2024/01/31 04:36:51;;;;;;;;;;;6.10;99.90;;;;;;5078927;28;20381;-82
2024/01/31 04:39:16;;;;;;;;;;;6.10;99.90;;;;;;5077999;28;19908;-82
2024/01/31 04:41:43;;;;;;;;;;;6.10;99.90;;;;;;5077494;28;19913;-82
2024/01/31 04:44:08;;;;;;;;;;;6.10;99.90;;;;;;5078048;28;19958;-82
2024/01/31 04:46:36;;;;;;;;;;;6.10;99.90;;;;;;5078086;28;19935;-82
2024/01/31 04:49:01;;;;;;;;;;;6.10;99.90;;;;;;5070548;28;19913;-82
2024/01/31 04:51:27;;;;;;;;;;;6.10;99.90;;;;;;5079048;28;20376;-81
2024/01/31 04:53:52;;;;;;;;;;;6.00;99.90;;;;;;5077793;28;19912;-82
2024/01/31 04:56:18;;;;;;;;;;;6.00;99.90;;;;;;5078046;28;19908;-82
2024/01/31 04:58:44;;;;;;;;;;;5.90;99.90;;;;;;5078874;28;19966;-82
2024/01/31 05:01:09;;;;;;;;;;;5.90;99.90;;;;;;5076729;28;19938;-81
2024/01/31 05:03:35;;;;;;;;;;;5.90;99.90;;;;;;5078264;28;20429;-82
2024/01/31 05:06:01;;;;;;;;;;;5.90;99.90;;;;;;5076212;28;19912;-82
2024/01/31 05:08:27;;;;;;;;;;;5.90;99.90;;;;;;5077708;28;19915;-81
2024/01/31 05:10:53;;;;;;;;;;;5.90;99.90;;;;;;5077439;28;19909;-81
2024/01/31 05:13:18;;;;;;;;;;;5.80;99.90;;;;;;5077150;28;19915;-81
2024/01/31 05:15:44;;;;;;;;;;;5.90;99.90;;;;;;5076026;28;19918;-81
2024/01/31 05:18:09;;;;;;;;;;;5.90;99.90;;;;;;5075555;28;19951;-82
2024/01/31 05:20:35;;;;;;;;;;;5.90;99.90;;;;;;5075990;28;19999;-81
2024/01/31 05:23:00;;;;;;;;;;;6.00;99.90;;;;;;5075909;28;20368;-81
2024/01/31 05:25:26;;;;;;;;;;;6.00;99.90;;;;;;5077102;28;19991;-82
2024/01/31 05:27:52;;;;;;;;;;;6.10;99.90;;;;;;5075682;28;19939;-80
2024/01/31 05:30:17;;;;;;;;;;;6.10;99.90;;;;;;5075685;28;19908;-80
2024/01/31 05:32:45;;;;;;;;;;;6.10;99.90;;;;;;5075082;28;19962;-80
2024/01/31 05:35:10;;;;;;;;;;;6.10;99.90;;;;;;5077054;28;19912;-81
2024/01/31 05:37:36;;;;;;;;;;;6.10;99.90;;;;;;5075408;28;19908;-80
2024/01/31 05:40:01;;;;;;;;;;;6.10;99.90;;;;;;5076805;28;19908;-81
2024/01/31 05:42:27;;;;;;;;;;;6.00;99.90;;;;;;5075213;28;19912;-82
2024/01/31 05:44:53;;;;;;;;;;;6.00;99.90;;;;;;5076700;28;19971;-82
2024/01/31 05:47:19;;;;;;;;;;;6.10;99.90;;;;;;5074811;28;19988;-82
2024/01/31 05:49:45;;;;;;;;;;;6.10;99.90;;;;;;5076577;28;19964;-81
2024/01/31 05:52:10;;;;;;;;;;;6.10;99.90;;;;;;5108985;28;20537;-81
2024/01/31 05:54:38;;;;;;;;;;;6.20;99.90;;;;;;5075239;28;19951;-81
2024/01/31 05:57:03;;;;;;;;;;;6.30;99.90;;;;;;5070503;28;20308;-80
2024/01/31 05:59:29;;;;;;;;;;;6.30;99.90;;;;;;5076333;28;19912;-80
2024/01/31 06:01:54;;;;;;;;;;;6.40;99.90;;;;;;5059494;28;19927;-81
2024/01/31 06:04:20;;;;;;;;;;;6.40;99.90;;;;;;5076398;28;19912;-81
2024/01/31 06:06:46;;;;;;;;;;;6.40;99.90;;;;;;5077075;28;19916;-81
2024/01/31 06:09:12;;;;;;;;;;;6.40;99.90;;;;;;5077449;28;19916;-80
2024/01/31 06:11:38;;;;;;;;;;;6.50;99.90;;;;;;5075804;28;19908;-81
2024/01/31 06:14:03;;;;;;;;;;;6.50;99.90;;;;;;5075007;28;19908;-81
2024/01/31 06:16:29;;;;;;;;;;;6.50;99.90;;;;;;5108559;28;19916;-80
2024/01/31 06:18:55;;;;;;;;;;;6.60;99.90;;;;;;5075983;28;19909;-81
2024/01/31 06:21:21;;;;;;;;;;;6.60;99.90;;;;;;5108489;28;19926;-81
2024/01/31 06:23:47;;;;;;;;;;;6.70;99.90;;;;;;5076291;28;19917;-81
2024/01/31 06:26:13;;;;;;;;;;;6.70;99.90;;;;;;5074744;28;19919;-82
2024/01/31 06:28:39;;;;;;;;;;;6.70;99.90;;;;;;5074743;28;19909;-81
2024/01/31 06:31:13;;;;;;;;;;;6.60;99.90;;;;;;5074644;28;19959;-81
2024/01/31 06:33:42;;;;;;;;;;;6.60;99.90;;;;;;5075781;28;19909;-81
2024/01/31 06:36:09;;;;;;;;;;;6.60;99.90;;;;;;5074748;28;19908;-81
2024/01/31 06:38:34;;;;;;;;;;;6.60;99.90;;;;;;5074618;28;19909;-81
2024/01/31 06:41:00;;;;;;;;;;;6.70;99.90;;;;;;5074674;28;19912;-81
2024/01/31 06:43:25;;;;;;;;;;;6.80;99.90;;;;;;5071965;28;19959;-80
2024/01/31 06:45:52;;;;;;;;;;;6.80;99.90;;;;;;5073326;28;19920;-81
2024/01/31 06:48:17;;;;;;;;;;;6.80;99.90;;;;;;5073769;28;19912;-82
2024/01/31 06:50:43;;;;;;;;;;;6.90;99.90;;;;;;5073668;28;19908;-80
2024/01/31 06:53:08;;;;;;;;;;;6.90;99.90;;;;;;5074352;28;19931;-83
2024/01/31 06:55:34;;;;;;;;;;;6.80;99.90;;;;;;5076148;28;19908;-83
2024/01/31 06:57:59;;;;;;;;;;;6.90;99.90;;;;;;5069416;28;19991;-81
2024/01/31 07:00:25;;;;;;;;;;;6.90;99.90;;;;;;5074740;28;19959;-81
2024/01/31 07:02:52;;;;;;;;;;;6.90;99.90;;;;;;5077600;28;19920;-82
2024/01/31 07:05:21;;;;;;;;;;;7.00;99.90;;;;;;5078556;28;20003;-81
2024/01/31 07:07:48;;;;;;;;;;;7.00;99.90;;;;;;5079840;28;19909;-82
2024/01/31 07:10:14;;;;;;;;;;;7.00;99.90;;;;;;5078489;28;19913;-82
2024/01/31 07:12:39;;;;;;;;;;;7.00;99.90;;;;;;5113145;28;19908;-86
2024/01/31 07:15:05;;;;;;;;;;;7.00;99.90;;;;;;5080640;28;19965;-85
2024/01/31 07:17:31;;;;;;;;;;;7.10;99.90;;;;;;5068848;28;20009;-86
2024/01/31 07:19:57;;;;;;;;;;;7.10;99.90;;;;;;5071786;28;19916;-84
2024/01/31 07:22:22;;;;;;;;;;;7.10;99.90;;;;;;5073843;28;19917;-85
2024/01/31 07:24:48;;;;;;;;;;;7.10;99.90;;;;;;5069300;28;19912;-85
2024/01/31 07:27:13;;;;;;;;;;;7.10;99.90;;;;;;5067123;28;19913;-84
2024/01/31 07:29:39;;;;;;;;;;;7.10;99.90;;;;;;5070530;28;19908;-84
2024/01/31 07:32:05;;;;;;;;;;;7.10;99.90;;;;;;5074986;28;19912;-84
2024/01/31 07:34:30;;;;;;;;;;;7.20;99.90;;;;;;5075026;28;20343;-85
2024/01/31 07:36:56;;;;;;;;;;;7.20;99.90;;;;;;5065907;28;19913;-84
2024/01/31 07:39:21;;;;;;;;;;;7.10;99.90;;;;;;5069280;28;19918;-84
2024/01/31 07:41:47;;;;;;;;;;;7.20;99.90;;;;;;5070851;28;19923;-84
2024/01/31 07:44:13;;;;;;;;;;;7.20;99.90;;;;;;5069119;28;19917;-84
2024/01/31 07:46:39;;;;;;;;;;;7.30;99.90;;;;;;5064844;28;19924;-84
2024/01/31 07:49:06;;;;;;;;;;;7.30;99.90;;;;;;5060261;28;20050;-84
2024/01/31 07:51:32;;;;;;;;;;;7.30;99.90;;;;;;5072638;28;19919;-85
2024/01/31 07:53:57;;;;;;;;;;;7.30;99.90;;;;;;5067760;28;19913;-84
2024/01/31 07:56:23;;;;;;;;;;;7.30;99.90;;;;;;5071156;28;19908;-84
2024/01/31 07:58:48;;;;;;;;;;;7.40;99.90;;;;;;5061235;28;19948;-84
2024/01/31 08:01:14;;;;;;;;;;;7.50;99.90;;;;;;5070956;28;19920;-83
2024/01/31 08:03:41;;;;;;;;;;;7.50;99.90;;;;;;5059604;28;19913;-84
2024/01/31 08:06:07;;;;;;;;;;;7.40;99.90;;;;;;5069920;28;19912;-84
2024/01/31 08:08:33;;;;;;;;;;;7.50;99.90;;;;;;5060617;28;19966;-84
2024/01/31 08:10:59;;;;;;;;;;;7.50;99.90;;;;;;5064222;28;20007;-84
2024/01/31 08:13:25;;;;;;;;;;;7.50;99.90;;;;;;5059468;28;19924;-84
2024/01/31 08:15:51;;;;;;;;;;;7.60;99.90;;;;;;5068668;28;20027;-84
2024/01/31 08:18:16;;;;;;;;;;;7.60;99.90;;;;;;5063597;28;19947;-84
2024/01/31 08:20:42;;;;;;;;;;;7.80;99.90;;;;;;5070480;28;19963;-84
2024/01/31 08:23:07;;;;;;;;;;;7.90;99.90;;;;;;5068980;28;19912;-85
2024/01/31 08:25:33;;;;;;;;;;;7.90;99.90;;;;;;5072089;28;19916;-85
2024/01/31 08:27:58;;;;;;;;;;;8.00;99.90;;;;;;5061643;28;19908;-84
2024/01/31 08:30:24;;;;;;;;;;;7.90;99.90;;;;;;5060189;28;20662;-84
2024/01/31 08:32:51;;;;;;;;;;;7.90;99.90;;;;;;5072665;28;19935;-84
2024/01/31 08:35:16;;;;;;;;;;;8.00;99.90;;;;;;5068827;28;19912;-83
2024/01/31 08:37:42;;;;;;;;;;;8.00;99.90;;;;;;5056137;28;19924;-83
2024/01/31 08:40:10;;;;;;;;;;;8.00;99.90;;;;;;5073019;28;19981;-84
2024/01/31 08:42:38;;;;;;;;;;;8.10;99.90;;;;;;5059049;28;20007;-84
2024/01/31 08:45:07;;;;;;;;;;;8.20;99.90;;;;;;5056735;28;19913;-83
2024/01/31 08:47:33;;;;;;;;;;;8.30;99.90;;;;;;5083844;28;19947;-84
2024/01/31 08:49:58;;;;;;;;;;;8.20;99.90;;;;;;5063929;28;19917;-85
2024/01/31 08:52:24;;;;;;;;;;;8.30;99.90;;;;;;5073689;28;19919;-83
2024/01/31 08:54:50;;;;;;;;;;;8.30;99.90;;;;;;5070981;28;19908;-82
2024/01/31 08:57:16;;;;;;;;;;;8.30;99.90;;;;;;5074794;28;20431;-83
2024/01/31 08:59:42;;;;;;;;;;;8.40;99.90;;;;;;5072920;28;19920;-83
2024/01/31 09:02:07;;;;;;;;;;;8.50;99.90;;;;;;5074259;28;19920;-83
2024/01/31 09:04:33;;;;;;;;;;;8.40;99.90;;;;;;5076126;28;19915;-80
2024/01/31 09:06:59;;;;;;;;;;;8.50;99.90;;;;;;5074898;28;20346;-78
2024/01/31 09:09:24;;;;;;;;;;;8.60;99.90;;;;;;5070405;28;20465;-81
2024/01/31 09:11:50;;;;;;;;;;;8.60;99.90;;;;;;5075303;28;20483;-83
2024/01/31 09:14:15;;;;;;;;;;;8.70;99.90;;;;;;5074838;28;20373;-87
2024/01/31 09:16:41;;;;;;;;;;;8.80;99.90;;;;;;5073022;28;19916;-86
2024/01/31 09:19:07;;;;;;;;;;;8.80;99.90;;;;;;5074838;28;19957;-81
2024/01/31 09:21:32;;;;;;;;;;;8.80;99.90;;;;;;5074568;28;19912;-82
2024/01/31 09:23:58;;;;;;;;;;;8.90;99.90;;;;;;5072356;28;19915;-84
2024/01/31 09:26:23;;;;;;;;;;;8.90;99.90;;;;;;5106524;28;19956;-82
2024/01/31 09:28:50;;;;;;;;;;;9.00;99.90;;;;;;5072282;28;19928;-82
2024/01/31 09:31:19;;;;;;;;;;;9.00;99.90;;;;;;5071838;28;19924;-83
2024/01/31 09:33:45;;;;;;;;;;;9.10;99.90;;;;;;5074749;28;19973;-82
2024/01/31 09:36:10;;;;;;;;;;;9.10;99.90;;;;;;5075113;28;20451;-81
2024/01/31 09:38:36;;;;;;;;;;;9.00;99.90;;;;;;5074913;28;19931;-80
2024/01/31 09:41:01;;;;;;;;;;;8.90;99.90;;;;;;5073979;28;20062;-80
2024/01/31 09:43:27;;;;;;;;;;;8.90;99.90;;;;;;5075282;28;19944;-81
2024/01/31 09:45:53;;;;;;;;;;;9.10;99.90;;;;;;5073676;28;19916;-84
2024/01/31 09:48:19;;;;;;;;;;;9.10;99.90;;;;;;5074856;28;19908;-78
2024/01/31 09:50:44;;;;;;;;;;;9.20;99.90;;;;;;5074445;28;19909;-79
2024/01/31 09:53:13;;;;;;;;;;;9.10;99.90;;;;;;5073639;28;20008;-79
2024/01/31 09:55:38;;;;;;;;;;;9.10;99.90;;;;;;5073395;28;19921;-75
2024/01/31 09:58:04;;;;;;;;;;;9.10;99.90;;;;;;5074788;28;19950;-78
2024/01/31 10:00:30;;;;;;;;;;;9.30;99.90;;;;;;5074283;28;19921;-78
2024/01/31 10:02:57;;;;;;;;;;;9.30;99.90;;;;;;5074067;28;20378;-78
2024/01/31 10:05:23;;;;;;;;;;;9.40;99.90;;;;;;5073452;28;19920;-78
2024/01/31 10:07:49;;;;;;;;;;;9.50;99.90;;;;;;5072456;28;19947;-79
2024/01/31 10:10:15;;;;;;;;;;;9.50;99.90;;;;;;5072558;28;19915;-77
2024/01/31 10:12:40;;;;;;;;;;;9.60;99.90;;;;;;5071025;28;20376;-76
2024/01/31 10:15:09;;;;;;;;;;;9.70;99.90;;;;;;5074220;28;19909;-77
2024/01/31 10:17:35;;;;;;;;;;;9.90;99.90;;;;;;5074422;28;19909;-76
2024/01/31 10:20:06;;;;;;;;;;;9.90;99.90;;;;;;5073461;28;20328;-77
2024/01/31 10:22:33;;;;;;;;;;;10.00;99.90;;;;;;5075163;28;19920;-73
2024/01/31 10:24:58;;;;;;;;;;;10.10;99.90;;;;;;5073039;28;19921;-80
2024/01/31 10:27:24;;;;;;;;;;;10.20;99.90;;;;;;5072962;28;19946;-80
2024/01/31 10:29:52;;;;;;;;;;;10.30;99.90;;;;;;5070324;28;19916;-77
2024/01/31 10:32:20;;;;;;;;;;;10.30;99.90;;;;;;5072905;28;19970;-79
2024/01/31 10:34:46;;;;;;;;;;;10.20;99.90;;;;;;5074614;28;19923;-79
2024/01/31 10:37:12;;;;;;;;;;;10.40;99.90;;;;;;5069552;28;19917;-79
2024/01/31 10:39:39;;;;;;;;;;;10.60;99.90;;;;;;5073406;28;19923;-79
2024/01/31 10:42:04;;;;;;;;;;;10.60;99.90;;;;;;5072137;28;19916;-78
2024/01/31 10:44:31;;;;;;;;;;;10.70;99.90;;;;;;5099443;28;20411;-73
2024/01/31 10:46:57;;;;;;;;;;;10.80;99.90;;;;;;5072670;28;19909;-74
2024/01/31 10:49:22;;;;;;;;;;;11.00;99.90;;;;;;5071866;28;19919;-78
2024/01/31 10:51:50;;;;;;;;;;;11.10;99.90;;;;;;5071696;28;20658;-78
2024/01/31 10:54:21;;;;;;;;;;;11.30;99.90;;;;;;5072959;28;19956;-76
2024/01/31 10:56:47;;;;;;;;;;;11.50;99.90;;;;;;5071857;28;19913;-76
2024/01/31 10:59:13;;;;;;;;;;;11.50;99.90;;;;;;5070325;28;19926;-77
2024/01/31 11:01:49;;;;;;;;;;;11.40;99.90;;;;;;5073464;28;20000;-77
2024/01/31 11:04:14;;;;;;;;;;;11.30;99.90;;;;;;5073017;28;20288;-77
2024/01/31 11:06:40;;;;;;;;;;;11.40;99.90;;;;;;5071444;28;19944;-77
2024/01/31 11:09:06;;;;;;;;;;;11.40;99.90;;;;;;5072364;28;19959;-77
2024/01/31 11:11:35;;;;;;;;;;;11.40;99.90;;;;;;5074511;28;19909;-75
2024/01/31 11:14:12;;;;;;;;;;;11.40;99.90;;;;;;5071370;28;19955;-77
2024/01/31 11:16:37;;;;;;;;;;;11.40;99.90;;;;;;5105524;28;19908;-76
2024/01/31 11:19:06;;;;;;;;;;;11.20;99.90;;;;;;5074290;28;20066;-76
2024/01/31 11:21:38;;;;;;;;;;;11.00;99.90;;;;;;5074438;28;19920;-76
2024/01/31 11:24:04;;;;;;;;;;;10.90;99.90;;;;;;5071742;28;19916;-76
2024/01/31 11:26:33;;;;;;;;;;;10.80;99.90;;;;;;5073082;28;19916;-76
2024/01/31 11:29:03;;;;;;;;;;;10.70;99.90;;;;;;5074012;28;19987;-76
2024/01/31 11:31:29;;;;;;;;;;;10.60;99.90;;;;;;5072684;28;20347;-76
2024/01/31 11:33:57;;;;;;;;;;;10.50;99.90;;;;;;5072800;28;19993;-76
2024/01/31 11:36:23;;;;;;;;;;;10.50;99.90;;;;;;5069942;28;19913;-76
2024/01/31 11:38:49;;;;;;;;;;;10.50;99.90;;;;;;5055809;28;19916;-76
2024/01/31 11:41:15;;;;;;;;;;;10.40;99.90;;;;;;5065690;28;20033;-76
2024/01/31 11:43:40;;;;;;;;;;;10.40;99.90;;;;;;5062345;28;20015;-76
2024/01/31 11:46:06;;;;;;;;;;;10.40;99.90;;;;;;5065335;28;19913;-77
2024/01/31 11:48:32;;;;;;;;;;;10.40;99.90;;;;;;5070180;28;19917;-76
2024/01/31 11:50:57;;;;;;;;;;;10.40;99.90;;;;;;5067444;28;19924;-77
2024/01/31 11:53:24;;;;;;;;;;;10.50;99.90;;;;;;5067803;28;19972;-77
2024/01/31 11:55:50;;;;;;;;;;;10.50;99.90;;;;;;5071008;28;19942;-77
2024/01/31 11:58:16;;;;;;;;;;;10.50;99.90;;;;;;5099993;28;19921;-77
2024/01/31 12:00:41;;;;;;;;;;;10.60;99.90;;;;;;5064841;28;19923;-77
2024/01/31 12:03:07;;;;;;;;;;;10.60;99.90;;;;;;5070223;28;19920;-77
2024/01/31 12:05:33;;;;;;;;;;;10.80;99.90;;;;;;5070901;28;19919;-77
2024/01/31 12:07:59;;;;;;;;;;;10.80;99.90;;;;;;5061147;28;19909;-76
2024/01/31 12:10:28;;;;;;;;;;;10.90;99.90;;;;;;5069693;28;19924;-76
2024/01/31 12:12:59;;;;;;;;;;;10.90;99.90;;;;;;5068132;28;19956;-77
2024/01/31 12:15:25;;;;;;;;;;;11.00;99.90;;;;;;5071374;28;19919;-77
2024/01/31 12:17:51;;;;;;;;;;;11.00;99.90;;;;;;5069677;28;19919;-76
2024/01/31 12:20:16;;;;;;;;;;;11.10;99.90;;;;;;5081275;28;20392;-78
2024/01/31 12:22:42;;;;;;;;;;;11.10;99.90;;;;;;5072765;28;19916;-77
2024/01/31 12:25:08;;;;;;;;;;;11.20;99.90;;;;;;5072044;28;19920;-77
2024/01/31 12:27:33;;;;;;;;;;;11.20;99.90;;;;;;5071817;28;19913;-77
2024/01/31 12:29:59;;;;;;;;;;;11.20;99.90;;;;;;5072751;28;19912;-77
2024/01/31 12:32:25;;;;;;;;;;;11.30;99.90;;;;;;5071566;28;19916;-76
2024/01/31 12:34:51;;;;;;;;;;;11.30;99.90;;;;;;5071305;28;19908;-78
2024/01/31 12:37:16;;;;;;;;;;;11.40;99.90;;;;;;5069926;28;19923;-77
2024/01/31 12:39:42;;;;;;;;;;;11.50;99.90;;;;;;5070315;28;19958;-77
2024/01/31 12:42:11;;;;;;;;;;;11.50;99.90;;;;;;5064927;28;20648;-77
2024/01/31 12:44:36;;;;;;;;;;;11.60;99.90;;;;;;5070073;28;20117;-77
2024/01/31 12:47:05;;;;;;;;;;;11.60;99.90;;;;;;5070771;28;20015;-76
2024/01/31 12:49:33;;;;;;;;;;;11.60;99.90;;;;;;5072450;28;19917;-77
2024/01/31 12:51:59;;;;;;;;;;;11.70;99.90;;;;;;5066269;28;20638;-77
2024/01/31 12:54:25;;;;;;;;;;;11.70;99.90;;;;;;5066023;28;20003;-77
2024/01/31 12:56:50;;;;;;;;;;;11.80;99.90;;;;;;5068425;28;20015;-77
2024/01/31 12:59:18;;;;;;;;;;;11.80;99.90;;;;;;5069325;28;20699;-77
2024/01/31 13:01:44;;;;;;;;;;;12.00;99.90;;;;;;5067027;28;19921;-77
2024/01/31 13:04:09;;;;;;;;;;;12.10;99.90;;;;;;5065650;28;20007;-78
2024/01/31 13:06:35;;;;;;;;;;;12.10;99.90;;;;;;5072434;28;20353;-76
2024/01/31 13:09:00;;;;;;;;;;;12.20;99.90;;;;;;5068014;28;19973;-77
2024/01/31 13:11:26;;;;;;;;;;;12.20;99.90;;;;;;5067809;28;19918;-77
2024/01/31 13:13:51;;;;;;;;;;;12.20;99.90;;;;;;5067050;28;20012;-77
2024/01/31 13:16:17;;;;;;;;;;;12.20;99.90;;;;;;5062190;28;19980;-76
2024/01/31 13:18:43;;;;;;;;;;;12.20;99.90;;;;;;5056776;28;20905;-76
2024/01/31 13:21:08;;;;;;;;;;;12.20;99.90;;;;;;5070986;28;19917;-76
2024/01/31 13:23:35;;;;;;;;;;;12.20;99.90;;;;;;5054439;28;19996;-77
2024/01/31 13:26:01;;;;;;;;;;;12.20;99.90;;;;;;5067684;28;19913;-77
2024/01/31 13:28:26;;;;;;;;;;;12.30;99.90;;;;;;5054449;28;19920;-78
2024/01/31 13:30:52;;;;;;;;;;;12.30;99.90;;;;;;5057688;28;19913;-79
2024/01/31 13:33:17;;;;;;;;;;;12.40;99.90;;;;;;5069037;28;19919;-77
2024/01/31 13:35:43;;;;;;;;;;;12.50;99.90;;;;;;5059104;28;19913;-77
2024/01/31 13:38:08;;;;;;;;;;;12.60;99.90;;;;;;5084596;28;19985;-78
2024/01/31 13:40:35;;;;;;;;;;;12.70;99.90;;;;;;5060896;28;19992;-77
2024/01/31 13:43:01;;;;;;;;;;;12.70;99.90;;;;;;5063896;28;20403;-78
2024/01/31 13:45:27;;;;;;;;;;;12.80;99.90;;;;;;5055635;28;19913;-79
2024/01/31 13:47:53;;;;;;;;;;;12.70;99.90;;;;;;5060752;28;19916;-78
2024/01/31 13:50:19;;;;;;;;;;;12.80;99.90;;;;;;5062983;28;19920;-77
2024/01/31 13:52:44;;;;;;;;;;;12.80;99.90;;;;;;5055768;28;19913;-78
2024/01/31 13:55:10;;;;;;;;;;;12.80;99.90;;;;;;5051734;28;19986;-78
2024/01/31 13:57:35;;;;;;;;;;;12.90;99.90;;;;;;5065636;28;19944;-77
2024/01/31 14:00:04;;;;;;;;;;;13.00;99.90;;;;;;5058797;28;19960;-78
2024/01/31 14:02:30;;;;;;;;;;;13.00;99.90;;;;;;5068314;28;19928;-77
2024/01/31 14:04:56;;;;;;;;;;;13.10;99.90;;;;;;5084624;28;20443;-77
2024/01/31 14:07:21;;;;;;;;;;;13.20;99.90;;;;;;5061519;28;19936;-77
2024/01/31 14:09:47;;;;;;;;;;;13.30;99.90;;;;;;5068080;28;19909;-77
2024/01/31 14:12:12;;;;;;;;;;;13.30;99.90;;;;;;5068660;28;19924;-78
2024/01/31 14:14:38;;;;;;;;;;;13.40;99.90;;;;;;5070439;28;19916;-77
2024/01/31 14:17:04;;;;;;;;;;;13.50;99.90;;;;;;5068794;28;19951;-78
2024/01/31 14:19:30;;;;;;;;;;;13.50;99.90;;;;;;5067844;28;19920;-78